createdAt,value
2022-10-20T00:01:44.120Z,101936.19
2022-10-20T00:04:10.898Z,101936.81
2022-10-20T00:06:37.719Z,101930.28
2022-10-20T00:09:04.556Z,101922.91
2022-10-20T00:11:31.362Z,101931.06
2022-10-20T00:13:58.177Z,101923.00
2022-10-20T00:16:24.921Z,101911.63
2022-10-20T00:18:52.049Z,101905.28
2022-10-20T00:21:18.848Z,101905.06
2022-10-20T00:23:45.602Z,101906.59
2022-10-20T00:26:12.343Z,101905.69
2022-10-20T00:28:39.136Z,101919.19
2022-10-20T00:31:05.883Z,101916.16
2022-10-20T00:33:32.647Z,101912.31
2022-10-20T00:35:59.853Z,101912.44
2022-10-20T00:38:26.738Z,101909.72
2022-10-20T00:40:53.498Z,101904.34
2022-10-20T00:43:20.322Z,101906.44
2022-10-20T00:45:47.100Z,101892.00
2022-10-20T00:48:13.848Z,101898.00
2022-10-20T00:50:41.470Z,101888.88
2022-10-20T00:53:08.265Z,101882.03
2022-10-20T00:55:35.007Z,101877.47
2022-10-20T00:58:01.785Z,101881.31
2022-10-20T01:00:28.533Z,101872.75
2022-10-20T01:02:55.283Z,101866.47
2022-10-20T01:05:22.053Z,101862.25
2022-10-20T01:07:48.787Z,101863.63
2022-10-20T01:10:15.526Z,101861.28
2022-10-20T01:12:42.293Z,101858.28
2022-10-20T01:15:09.040Z,101849.69
2022-10-20T01:17:36.238Z,101852.41
2022-10-20T01:20:03.285Z,101841.13
2022-10-20T01:22:30.038Z,101848.03
2022-10-20T01:24:56.785Z,101835.94
2022-10-20T01:27:23.584Z,101829.75
2022-10-20T01:29:50.449Z,101830.66
2022-10-20T01:32:17.264Z,101828.41
2022-10-20T01:34:46.825Z,101825.47
2022-10-20T01:37:28.220Z,101819.81
2022-10-20T01:40:02.725Z,101822.25
2022-10-20T01:42:29.851Z,101818.03
2022-10-20T01:44:56.633Z,101806.84
2022-10-20T01:47:23.401Z,101806.34
2022-10-20T01:49:50.200Z,101802.00
2022-10-20T01:52:16.965Z,101815.09
2022-10-20T01:54:43.723Z,101795.00
2022-10-20T01:57:10.478Z,101789.84
2022-10-20T01:59:37.222Z,101790.53
2022-10-20T02:02:04.105Z,101793.41
2022-10-20T02:04:30.856Z,101794.91
2022-10-20T02:06:57.613Z,101791.06
2022-10-20T02:09:24.368Z,101785.84
2022-10-20T02:11:51.136Z,101789.50
2022-10-20T02:14:17.875Z,101782.56
2022-10-20T02:16:44.632Z,101782.06
2022-10-20T02:19:11.420Z,101765.66
2022-10-20T02:21:38.185Z,101772.66
2022-10-20T02:24:05.008Z,101765.44
2022-10-20T02:26:32.285Z,101752.81
2022-10-20T02:28:59.038Z,101760.06
2022-10-20T02:31:25.789Z,101757.97
2022-10-20T02:33:52.565Z,101764.13
2022-10-20T02:36:19.327Z,101761.97
2022-10-20T02:38:46.097Z,101763.97
2022-10-20T02:41:12.894Z,101756.06
2022-10-20T02:43:39.673Z,101758.63
2022-10-20T02:46:06.479Z,101754.75
2022-10-20T02:48:33.230Z,101751.72
2022-10-20T02:51:00.094Z,101758.28
2022-10-20T02:53:26.849Z,101752.31
2022-10-20T02:55:53.812Z,101757.56
2022-10-20T02:58:20.574Z,101751.28
2022-10-20T03:00:47.332Z,101750.47
2022-10-20T03:03:14.075Z,101743.28
2022-10-20T03:05:41.733Z,101740.88
2022-10-20T03:08:08.549Z,101745.63
2022-10-20T03:10:37.208Z,101739.66
2022-10-20T03:13:03.971Z,101738.44
2022-10-20T03:15:30.738Z,101733.34
2022-10-20T03:17:57.494Z,101728.75
2022-10-20T03:20:24.263Z,101734.84
2022-10-20T03:22:51.035Z,101723.00
2022-10-20T03:25:17.802Z,101717.78
2022-10-20T03:27:44.545Z,101721.69
2022-10-20T03:30:11.349Z,101722.00
2022-10-20T03:32:38.436Z,101729.59
2022-10-20T03:35:05.431Z,101727.44
2022-10-20T03:37:32.191Z,101718.09
2022-10-20T03:39:58.933Z,101724.25
2022-10-20T03:42:25.680Z,101725.13
2022-10-20T03:44:52.437Z,101707.69
2022-10-20T03:47:19.256Z,101714.94
2022-10-20T03:49:46.000Z,101712.59
2022-10-20T03:52:12.761Z,101696.03
2022-10-20T03:54:40.800Z,101690.53
2022-10-20T03:57:08.073Z,101680.78
2022-10-20T03:59:34.953Z,101681.50
2022-10-20T04:02:01.783Z,101679.84
2022-10-20T04:04:28.585Z,101681.13
2022-10-20T04:06:55.338Z,101680.91
2022-10-20T04:09:22.087Z,101685.78
2022-10-20T04:11:48.867Z,101691.31
2022-10-20T04:14:15.663Z,101680.56
2022-10-20T04:16:42.422Z,101677.34
2022-10-20T04:19:09.210Z,101681.00
2022-10-20T04:21:36.033Z,101686.88
2022-10-20T04:24:02.782Z,101674.97
2022-10-20T04:26:29.537Z,101674.63
2022-10-20T04:28:56.897Z,101670.84
2022-10-20T04:31:23.637Z,101672.19
2022-10-20T04:33:50.386Z,101665.88
2022-10-20T04:36:17.284Z,101660.22
2022-10-20T04:38:44.091Z,101659.69
2022-10-20T04:41:10.958Z,101653.31
2022-10-20T04:43:37.778Z,101647.59
2022-10-20T04:46:07.948Z,101657.19
2022-10-20T04:48:35.686Z,101638.63
2022-10-20T04:51:02.538Z,101636.88
2022-10-20T04:53:29.305Z,101642.69
2022-10-20T04:55:56.081Z,101646.03
2022-10-20T04:58:22.911Z,101645.16
2022-10-20T05:00:50.070Z,101651.47
2022-10-20T05:03:16.887Z,101645.81
2022-10-20T05:05:43.654Z,101642.75
2022-10-20T05:08:10.555Z,101630.94
2022-10-20T05:10:37.296Z,101635.47
2022-10-20T05:13:04.052Z,101634.94
2022-10-20T05:15:30.870Z,101638.97
2022-10-20T05:17:57.682Z,101621.41
2022-10-20T05:20:24.569Z,101620.03
2022-10-20T05:22:51.421Z,101623.47
2022-10-20T05:25:35.447Z,101615.00
2022-10-20T05:28:03.093Z,101621.59
2022-10-20T05:30:29.878Z,101613.34
2022-10-20T05:32:56.671Z,101616.50
2022-10-20T05:35:23.420Z,101615.06
2022-10-20T05:37:50.182Z,101608.44
2022-10-20T05:40:16.936Z,101608.34
2022-10-20T05:42:43.713Z,101610.09
2022-10-20T05:45:10.466Z,101615.97
2022-10-20T05:47:37.274Z,101607.69
2022-10-20T05:50:04.054Z,101597.09
2022-10-20T05:52:30.817Z,101596.34
2022-10-20T05:54:59.359Z,101591.78
2022-10-20T05:57:26.116Z,101602.38
2022-10-20T05:59:52.860Z,101603.66
2022-10-20T06:02:19.731Z,101609.63
2022-10-20T06:04:46.577Z,101615.34
2022-10-20T06:07:13.321Z,101611.00
2022-10-20T06:09:40.069Z,101608.91
2022-10-20T06:14:38.521Z,101605.59
2022-10-20T06:17:05.294Z,101605.75
2022-10-20T06:19:32.065Z,101608.81
2022-10-20T06:22:03.805Z,101610.69
2022-10-20T06:24:33.417Z,101611.53
2022-10-20T06:27:00.195Z,101610.59
2022-10-20T06:29:26.937Z,101610.84
2022-10-20T06:31:53.688Z,101606.94
2022-10-20T06:34:20.479Z,101616.47
2022-10-20T06:36:47.248Z,101616.47
2022-10-20T06:39:14.049Z,101616.13
2022-10-20T06:41:40.859Z,101614.66
2022-10-20T06:44:07.667Z,101607.72
2022-10-20T06:46:35.116Z,101608.16
2022-10-20T06:49:03.436Z,101600.78
2022-10-20T06:51:30.227Z,101596.81
2022-10-20T06:53:56.996Z,101589.00
2022-10-20T06:56:23.734Z,101592.81
2022-10-20T06:58:50.473Z,101597.47
2022-10-20T07:01:17.414Z,101592.50
2022-10-20T07:03:44.527Z,101596.91
2022-10-20T07:06:11.320Z,101596.41
2022-10-20T07:08:38.188Z,101597.06
2022-10-20T07:11:05.081Z,101593.50
2022-10-20T07:13:31.825Z,101599.25
2022-10-20T07:15:58.588Z,101603.09
2022-10-20T07:18:25.386Z,101601.66
2022-10-20T07:20:52.126Z,101603.25
2022-10-20T07:23:18.916Z,101603.22
2022-10-20T07:25:45.784Z,101595.69
2022-10-20T07:28:12.699Z,101596.16
2022-10-20T07:30:39.817Z,101592.75
2022-10-20T07:33:06.565Z,101597.44
2022-10-20T07:35:33.329Z,101602.34
2022-10-20T07:38:00.093Z,101579.59
2022-10-20T07:40:26.839Z,101580.81
2022-10-20T07:42:53.693Z,101584.72
2022-10-20T07:45:20.454Z,101586.53
2022-10-20T07:47:47.760Z,101591.25
2022-10-20T07:50:14.633Z,101578.91
2022-10-20T07:52:41.384Z,101579.19
2022-10-20T07:55:17.860Z,101573.34
2022-10-20T07:57:54.918Z,101575.53
2022-10-20T08:00:21.673Z,101575.53
2022-10-20T08:02:48.408Z,101573.03
2022-10-20T08:05:15.193Z,101569.06
2022-10-20T08:07:41.951Z,101566.13
2022-10-20T08:10:08.717Z,101560.84
2022-10-20T08:12:35.754Z,101555.34
2022-10-20T08:15:04.711Z,101558.94
2022-10-20T08:17:31.593Z,101564.06
2022-10-20T08:22:47.983Z,101542.66
2022-10-20T08:25:15.006Z,101545.34
2022-10-20T08:27:41.810Z,101548.25
2022-10-20T08:30:23.367Z,101536.59
2022-10-20T08:32:50.826Z,101538.31
2022-10-20T08:35:17.599Z,101529.97
2022-10-20T08:37:44.381Z,101533.41
2022-10-20T08:40:11.192Z,101539.31
2022-10-20T08:42:37.936Z,101539.38
2022-10-20T08:45:04.683Z,101538.09
2022-10-20T08:47:33.442Z,101534.34
2022-10-20T08:50:00.524Z,101528.03
2022-10-20T08:52:27.456Z,101525.06
2022-10-20T08:54:55.112Z,101519.78
2022-10-20T08:57:22.376Z,101515.69
2022-10-20T08:59:49.113Z,101509.16
2022-10-20T09:02:15.917Z,101501.97
2022-10-20T09:07:14.451Z,101501.34
2022-10-20T09:09:41.215Z,101494.31
2022-10-20T09:12:08.023Z,101498.88
2022-10-20T09:14:35.330Z,101502.94
2022-10-20T09:17:02.557Z,101497.25
2022-10-20T09:19:29.336Z,101489.72
2022-10-20T09:21:56.141Z,101492.91
2022-10-20T09:24:22.902Z,101483.59
2022-10-20T09:27:05.004Z,101483.59
2022-10-20T09:29:31.796Z,101474.03
2022-10-20T09:32:01.365Z,101470.88
2022-10-20T09:34:31.460Z,101462.75
2022-10-20T09:36:58.332Z,101459.06
2022-10-20T09:39:25.074Z,101468.06
2022-10-20T09:41:51.883Z,101461.94
2022-10-20T09:44:23.631Z,101458.97
2022-10-20T09:46:50.560Z,101467.19
2022-10-20T09:49:17.297Z,101467.97
2022-10-20T09:51:44.107Z,101459.78
2022-10-20T09:54:10.897Z,101455.72
2022-10-20T09:56:37.642Z,101452.59
2022-10-20T09:59:04.397Z,101456.00
2022-10-20T10:01:31.192Z,101448.88
2022-10-20T10:04:01.729Z,101448.88
2022-10-20T10:06:28.551Z,101438.28
2022-10-20T10:08:55.325Z,101431.09
2022-10-20T10:11:22.086Z,101443.34
2022-10-20T10:13:48.842Z,101439.03
2022-10-20T10:16:15.647Z,101433.50
2022-10-20T10:18:46.750Z,101423.59
2022-10-20T10:21:18.173Z,101422.91
2022-10-20T10:23:44.927Z,101429.13
2022-10-20T10:26:11.678Z,101421.00
2022-10-20T10:28:38.503Z,101416.97
2022-10-20T10:31:05.418Z,101418.72
2022-10-20T10:33:33.189Z,101415.78
2022-10-20T10:35:59.952Z,101412.88
2022-10-20T10:38:26.692Z,101405.88
2022-10-20T10:40:53.438Z,101405.69
2022-10-20T10:43:22.574Z,101397.19
2022-10-20T10:45:49.333Z,101400.84
2022-10-20T10:48:16.081Z,101390.47
2022-10-20T10:50:42.841Z,101380.25
2022-10-20T10:53:09.885Z,101378.16
2022-10-20T10:55:48.203Z,101380.50
2022-10-20T10:58:15.386Z,101366.09
2022-10-20T11:00:42.193Z,101365.38
2022-10-20T11:03:08.993Z,101359.72
2022-10-20T11:05:35.749Z,101349.56
2022-10-20T11:08:02.536Z,101348.38
2022-10-20T11:10:29.375Z,101336.31
2022-10-20T11:12:56.148Z,101339.66
2022-10-20T11:15:22.956Z,101339.47
2022-10-20T11:17:49.710Z,101337.78
2022-10-20T11:20:16.462Z,101332.06
2022-10-20T11:22:43.306Z,101323.16
2022-10-20T11:25:10.166Z,101316.41
2022-10-20T11:27:37.397Z,101317.25
2022-10-20T11:30:08.085Z,101310.91
2022-10-20T11:35:02.781Z,101305.88
2022-10-20T11:37:29.512Z,101310.00
2022-10-20T11:39:56.338Z,101304.13
2022-10-20T11:42:23.096Z,101301.28
2022-10-20T11:44:49.863Z,101307.94
2022-10-20T11:47:16.605Z,101291.03
2022-10-20T11:49:43.413Z,101287.03
2022-10-20T11:52:10.181Z,101270.09
2022-10-20T11:54:36.979Z,101261.00
2022-10-20T11:57:03.793Z,101262.66
2022-10-20T11:59:30.532Z,101250.41
2022-10-20T12:01:57.521Z,101244.47
2022-10-20T12:04:24.588Z,101234.31
2022-10-20T12:06:51.329Z,101230.19
2022-10-20T12:09:18.167Z,101223.38
2022-10-20T12:11:45.113Z,101214.47
2022-10-20T12:14:11.857Z,101216.72
2022-10-20T12:16:38.669Z,101203.47
2022-10-20T12:19:05.449Z,101202.28
2022-10-20T12:21:34.407Z,101193.38
2022-10-20T12:24:05.703Z,101194.59
2022-10-20T12:26:35.430Z,101198.97
2022-10-20T12:29:03.277Z,101189.91
2022-10-20T12:31:30.034Z,101197.28
2022-10-20T12:33:59.068Z,101210.16
2022-10-20T12:36:25.806Z,101204.16
2022-10-20T12:38:52.729Z,101192.88
2022-10-20T12:41:19.489Z,101198.06
2022-10-20T12:43:46.272Z,101195.78
2022-10-20T12:46:13.222Z,101198.00
2022-10-20T12:48:40.260Z,101194.66
2022-10-20T12:51:07.442Z,101201.63
2022-10-20T12:53:34.195Z,101199.88
2022-10-20T12:56:01.038Z,101187.84
2022-10-20T12:58:27.828Z,101186.72
2022-10-20T13:00:54.632Z,101188.59
2022-10-20T13:03:25.407Z,101193.41
2022-10-20T13:05:52.897Z,101186.66
2022-10-20T13:08:19.661Z,101176.50
2022-10-20T13:10:46.423Z,101175.38
2022-10-20T13:13:13.169Z,101162.47
2022-10-20T13:15:39.916Z,101168.88
2022-10-20T13:18:06.670Z,101154.09
2022-10-20T13:20:33.424Z,101145.13
2022-10-20T13:25:31.860Z,101158.59
2022-10-20T13:27:58.632Z,101155.19
2022-10-20T13:30:25.372Z,101161.91
2022-10-20T13:33:10.948Z,101155.28
2022-10-20T13:35:38.887Z,101147.44
2022-10-20T13:38:05.650Z,101138.44
2022-10-20T13:40:36.561Z,101119.91
2022-10-20T13:43:03.589Z,101129.53
2022-10-20T13:45:30.347Z,101131.91
2022-10-20T13:47:57.089Z,101144.28
2022-10-20T13:50:23.901Z,101144.28
2022-10-20T13:52:50.740Z,101140.22
2022-10-20T13:55:17.493Z,101142.94
2022-10-20T13:57:44.247Z,101143.69
2022-10-20T14:00:11.009Z,101143.34
2022-10-20T14:02:38.102Z,101140.94
2022-10-20T14:05:05.003Z,101147.19
2022-10-20T14:07:31.765Z,101144.84
2022-10-20T14:09:59.022Z,101146.50
2022-10-20T14:12:25.826Z,101147.13
2022-10-20T14:14:52.591Z,101136.91
2022-10-20T14:17:19.333Z,101135.41
2022-10-20T14:19:46.932Z,101133.41
2022-10-20T14:22:13.868Z,101122.59
2022-10-20T14:24:40.618Z,101115.56
2022-10-20T14:27:07.360Z,101114.94
2022-10-20T14:29:34.123Z,101102.59
2022-10-20T14:32:00.910Z,101094.88
2022-10-20T14:34:27.680Z,101097.44
2022-10-20T14:36:54.441Z,101094.00
2022-10-20T14:39:21.189Z,101086.91
2022-10-20T14:41:47.937Z,101079.41
2022-10-20T14:44:26.228Z,101077.94
2022-10-20T14:46:57.683Z,101085.47
2022-10-20T14:49:24.485Z,101079.06
2022-10-20T14:51:51.256Z,101071.38
2022-10-20T14:54:18.057Z,101070.28
2022-10-20T14:56:44.930Z,101068.09
2022-10-20T14:59:11.720Z,101066.00
2022-10-20T15:01:38.562Z,101064.56
2022-10-20T15:04:05.535Z,101063.59
2022-10-20T15:06:32.424Z,101064.06
2022-10-20T15:08:59.732Z,101050.41
2022-10-20T15:11:26.577Z,101055.19
2022-10-20T15:13:53.320Z,101050.13
2022-10-20T15:16:20.080Z,101062.03
2022-10-20T15:18:46.889Z,101069.88
2022-10-20T15:21:13.673Z,101063.66
2022-10-20T15:23:40.429Z,101060.66
2022-10-20T15:26:07.344Z,101063.16
2022-10-20T15:28:34.093Z,101059.50
2022-10-20T15:31:00.897Z,101065.47
2022-10-20T15:33:27.709Z,101058.75
2022-10-20T15:35:54.840Z,101044.19
2022-10-20T15:38:21.593Z,101033.81
2022-10-20T15:40:48.382Z,101028.31
2022-10-20T15:43:15.200Z,101035.56
2022-10-20T15:45:41.944Z,101022.75
2022-10-20T15:48:08.860Z,101014.63
2022-10-20T15:50:35.606Z,101009.81
2022-10-20T15:53:02.940Z,101007.78
2022-10-20T15:55:30.055Z,101023.34
2022-10-20T15:57:56.850Z,101017.81
2022-10-20T16:00:23.589Z,101017.50
2022-10-20T16:02:50.398Z,101015.63
2022-10-20T16:05:17.145Z,101011.69
2022-10-20T16:07:43.895Z,101010.13
2022-10-20T16:10:10.680Z,101008.69
2022-10-20T16:12:37.852Z,100990.72
2022-10-20T16:15:04.921Z,100992.03
2022-10-20T16:17:31.681Z,100987.94
2022-10-20T16:19:58.480Z,100990.19
2022-10-20T16:22:26.374Z,100984.53
2022-10-20T16:24:53.187Z,100985.59
2022-10-20T16:27:19.937Z,100988.63
2022-10-20T16:29:49.097Z,100999.38
2022-10-20T16:32:16.675Z,101004.75
2022-10-20T16:34:43.481Z,101005.19
2022-10-20T16:37:10.278Z,101003.88
2022-10-20T16:39:37.055Z,101017.25
2022-10-20T16:42:03.810Z,100999.28
2022-10-20T16:44:30.741Z,101008.97
2022-10-20T16:46:57.891Z,101007.03
2022-10-20T16:49:24.629Z,100998.84
2022-10-20T16:51:51.408Z,100992.78
2022-10-20T16:54:18.162Z,100999.69
2022-10-20T16:56:48.948Z,100994.75
2022-10-20T16:59:15.740Z,100991.38
2022-10-20T17:01:42.509Z,100993.06
2022-10-20T17:04:09.262Z,100990.22
2022-10-20T17:06:36.015Z,100990.63
2022-10-20T17:09:02.936Z,100977.72
2022-10-20T17:11:29.822Z,100976.69
2022-10-20T17:13:56.569Z,100984.22
2022-10-20T17:16:26.190Z,100985.19
2022-10-20T17:18:55.366Z,100968.13
2022-10-20T17:21:22.110Z,100963.31
2022-10-20T17:23:48.878Z,100962.63
2022-10-20T17:26:15.760Z,100959.63
2022-10-20T17:28:42.497Z,100964.72
2022-10-20T17:31:09.312Z,100961.41
2022-10-20T17:33:36.095Z,100954.59
2022-10-20T17:36:02.839Z,100954.25
2022-10-20T17:38:29.661Z,100936.31
2022-10-20T17:40:56.396Z,100937.19
2022-10-20T17:43:23.165Z,100934.94
2022-10-20T17:45:49.950Z,100953.94
2022-10-20T17:48:16.695Z,100938.59
2022-10-20T17:50:44.117Z,100930.94
2022-10-20T17:53:10.879Z,100933.13
2022-10-20T17:55:37.630Z,100940.28
2022-10-20T17:58:05.962Z,100937.47
2022-10-20T18:00:54.728Z,100930.81
2022-10-20T18:03:19.573Z,100925.84
2022-10-20T18:05:46.338Z,100914.81
2022-10-20T18:08:13.074Z,100913.50
2022-10-20T18:10:41.472Z,100911.31
2022-10-20T18:13:10.407Z,100906.34
2022-10-20T18:15:37.162Z,100906.88
2022-10-20T18:18:03.917Z,100899.56
2022-10-20T18:20:32.301Z,100899.31
2022-10-20T18:23:01.073Z,100891.28
2022-10-20T18:25:27.812Z,100890.72
2022-10-20T18:27:55.319Z,100888.94
2022-10-20T18:30:22.075Z,100879.00
2022-10-20T18:32:48.872Z,100880.97
2022-10-20T18:35:15.807Z,100879.28
2022-10-20T18:37:44.730Z,100894.47
2022-10-20T18:40:11.574Z,100899.78
2022-10-20T18:42:38.948Z,100905.59
2022-10-20T18:45:05.773Z,100910.66
2022-10-20T18:47:32.509Z,100913.50
2022-10-20T18:49:59.264Z,100904.50
2022-10-20T18:52:25.999Z,100908.50
2022-10-20T18:54:52.740Z,100908.69
2022-10-20T18:57:19.493Z,100905.41
2022-10-20T18:59:46.265Z,100894.88
2022-10-20T19:02:13.038Z,100893.44
2022-10-20T19:04:39.854Z,100890.25
2022-10-20T19:07:06.580Z,100889.81
2022-10-20T19:09:33.328Z,100889.91
2022-10-20T19:12:00.843Z,100875.53
2022-10-20T19:14:27.764Z,100884.78
2022-10-20T19:16:54.541Z,100873.75
2022-10-20T19:19:22.678Z,100866.53
2022-10-20T19:21:49.454Z,100864.81
2022-10-20T19:24:16.260Z,100867.28
2022-10-20T19:26:43.065Z,100874.06
2022-10-20T19:29:09.835Z,100868.50
2022-10-20T19:31:36.572Z,100875.03
2022-10-20T19:34:03.356Z,100878.25
2022-10-20T19:36:30.174Z,100861.13
2022-10-20T19:38:56.937Z,100863.19
2022-10-20T19:41:23.694Z,100855.56
2022-10-20T19:43:50.497Z,100854.44
2022-10-20T19:46:17.263Z,100856.94
2022-10-20T19:48:44.029Z,100858.13
2022-10-20T19:51:10.803Z,100836.47
2022-10-20T19:53:37.549Z,100832.94
2022-10-20T19:56:04.313Z,100828.19
2022-10-20T19:58:31.060Z,100841.13
2022-10-20T20:00:57.856Z,100839.38
2022-10-20T20:03:24.715Z,100833.75
2022-10-20T20:05:51.457Z,100819.19
2022-10-20T20:08:18.269Z,100825.69
2022-10-20T20:10:45.202Z,100824.94
2022-10-20T20:13:11.954Z,100829.47
2022-10-20T20:15:38.693Z,100833.09
2022-10-20T20:18:05.974Z,100837.75
2022-10-20T20:20:32.768Z,100832.50
2022-10-20T20:22:59.519Z,100828.69
2022-10-20T20:25:26.281Z,100824.41
2022-10-20T20:27:53.034Z,100827.66
2022-10-20T20:30:19.772Z,100837.13
2022-10-20T20:32:47.798Z,100839.34
2022-10-20T20:35:17.648Z,100835.38
2022-10-20T20:37:44.460Z,100841.22
2022-10-20T20:40:11.249Z,100842.69
2022-10-20T20:42:38.124Z,100843.47
2022-10-20T20:45:04.998Z,100838.50
2022-10-20T20:47:31.854Z,100813.53
2022-10-20T20:50:00.389Z,100790.91
2022-10-20T20:52:29.178Z,100795.22
2022-10-20T20:54:55.940Z,100803.47
2022-10-20T20:57:22.683Z,100807.75
2022-10-20T20:59:49.432Z,100787.13
2022-10-20T21:02:16.188Z,100800.56
2022-10-20T21:04:42.933Z,100807.97
2022-10-20T21:07:09.698Z,100822.94
2022-10-20T21:09:36.466Z,100822.94
2022-10-20T21:12:03.303Z,100822.31
2022-10-20T21:14:30.099Z,100826.34
2022-10-20T21:16:56.890Z,100822.47
2022-10-20T21:19:23.635Z,100821.22
2022-10-20T21:21:50.730Z,100818.47
2022-10-20T21:24:17.746Z,100830.59
2022-10-20T21:26:44.587Z,100834.66
2022-10-20T21:29:11.378Z,100823.97
2022-10-20T21:31:38.175Z,100825.47
2022-10-20T21:34:04.925Z,100828.41
2022-10-20T21:36:32.282Z,100834.97
2022-10-20T21:38:59.081Z,100822.13
2022-10-20T21:41:25.909Z,100819.25
2022-10-20T21:43:52.732Z,100822.66
2022-10-20T21:46:19.522Z,100826.31
2022-10-20T21:48:46.326Z,100822.56
2022-10-20T21:51:13.077Z,100808.91
2022-10-20T21:53:39.822Z,100809.31
2022-10-20T21:56:06.605Z,100811.19
2022-10-20T21:58:33.534Z,100797.19
2022-10-20T22:01:00.365Z,100784.97
2022-10-20T22:03:27.225Z,100782.56
2022-10-20T22:05:53.978Z,100780.19
2022-10-20T22:08:20.735Z,100778.34
2022-10-20T22:10:47.482Z,100770.94
2022-10-20T22:13:14.261Z,100773.72
2022-10-20T22:15:41.332Z,100771.75
2022-10-20T22:18:08.102Z,100777.66
2022-10-20T22:20:35.259Z,100765.56
2022-10-20T22:23:02.916Z,100765.81
2022-10-20T22:25:29.850Z,100751.16
2022-10-20T22:27:56.613Z,100748.38
2022-10-20T22:30:23.366Z,100749.34
2022-10-20T22:32:50.113Z,100744.97
2022-10-20T22:35:16.882Z,100741.53
2022-10-20T22:37:43.659Z,100736.75
2022-10-20T22:40:10.415Z,100734.72
2022-10-20T22:42:37.424Z,100743.50
2022-10-20T22:45:04.377Z,100757.25
2022-10-20T22:47:31.121Z,100746.25
2022-10-20T22:49:57.874Z,100770.78
2022-10-20T22:52:24.760Z,100778.75
2022-10-20T22:54:51.602Z,100787.41
2022-10-20T22:57:18.421Z,100800.81
2022-10-20T22:59:45.186Z,100807.19
2022-10-20T23:02:11.941Z,100790.88
2022-10-20T23:04:38.684Z,100786.59
2022-10-20T23:07:05.437Z,100787.63
2022-10-20T23:09:32.190Z,100779.91
2022-10-20T23:11:58.946Z,100769.94
2022-10-20T23:14:25.714Z,100763.00
2022-10-20T23:16:52.469Z,100746.56
2022-10-20T23:19:19.209Z,100757.97
2022-10-20T23:21:45.971Z,100763.00
2022-10-20T23:24:12.713Z,100767.19
2022-10-20T23:26:39.532Z,100792.72
2022-10-20T23:29:06.287Z,100801.69
2022-10-20T23:31:33.060Z,100792.44
2022-10-20T23:33:59.798Z,100786.75
2022-10-20T23:36:26.549Z,100779.53
2022-10-20T23:38:53.351Z,100778.41
2022-10-20T23:41:20.092Z,100768.03
2022-10-20T23:43:46.842Z,100761.56
2022-10-20T23:46:13.669Z,100772.84
2022-10-20T23:48:40.413Z,100773.53
2022-10-20T23:51:07.172Z,100780.22
2022-10-20T23:53:33.980Z,100783.53
2022-10-20T23:56:00.747Z,100789.19
2022-10-20T23:58:27.637Z,100772.31
